Time;durP1;ratioP1;P1;durP2;ratioP2;P2;SDS_P1;SDS_P2;PMS_P1;PMS_P2;Temp;Humidity;BMP_temperature;BMP_pressure;BME280_temperature;BME280_humidity;BME280_pressure;Samples;Min_cycle;Max_cycle;Signal;HPM_P1;HPM_P2
2023/01/02 00:00:23;;;;;;;1999.90;999.90;;;11.90;99.90;;;;;;5054405;28;20435;-75
2023/01/02 00:02:48;;;;;;;1999.90;999.90;;;11.90;99.90;;;;;;5054678;28;20052;-75
2023/01/02 00:05:14;;;;;;;1999.90;999.90;;;12.00;99.90;;;;;;5054583;28;20549;-75
2023/01/02 00:07:40;;;;;;;1999.90;999.90;;;12.00;99.90;;;;;;5054614;28;20426;-76
2023/01/02 00:10:05;;;;;;;1999.90;999.90;;;12.00;99.90;;;;;;5054331;28;20025;-76
2023/01/02 00:12:31;;;;;;;1999.90;999.90;;;12.00;99.90;;;;;;5052298;28;20458;-75
2023/01/02 00:14:57;;;;;;;1999.90;999.90;;;11.90;99.90;;;;;;5054229;28;20036;-76
2023/01/02 00:17:22;;;;;;;1999.90;999.90;;;12.00;99.90;;;;;;5054363;28;20025;-75
2023/01/02 00:19:48;;;;;;;1999.90;999.90;;;12.00;99.90;;;;;;5054243;28;20036;-75
2023/01/02 00:22:14;;;;;;;1999.90;999.90;;;11.90;99.90;;;;;;5053663;28;20035;-76
2023/01/02 00:24:39;;;;;;;1999.90;999.90;;;11.90;99.90;;;;;;5054321;28;20046;-76
2023/01/02 00:27:05;;;;;;;1999.90;999.90;;;11.80;99.90;;;;;;5053695;28;20408;-76
2023/01/02 00:29:30;;;;;;;1999.90;999.90;;;11.80;99.90;;;;;;5054224;28;20468;-76
2023/01/02 00:31:56;;;;;;;1999.90;999.90;;;11.80;99.90;;;;;;5053967;28;20036;-76
2023/01/02 00:34:21;;;;;;;1999.90;999.90;;;11.80;99.90;;;;;;5053265;28;20055;-76
2023/01/02 00:36:47;;;;;;;1999.90;999.90;;;11.70;99.90;;;;;;5053721;28;20111;-77
2023/01/02 00:39:13;;;;;;;1999.90;999.90;;;11.70;99.90;;;;;;5053863;28;20064;-76
2023/01/02 00:41:38;;;;;;;1999.90;999.90;;;11.70;99.90;;;;;;5052528;28;20035;-76
2023/01/02 00:44:04;;;;;;;1999.90;999.90;;;11.70;99.90;;;;;;5053871;28;20107;-76
2023/01/02 00:46:29;;;;;;;1999.90;999.90;;;11.60;99.90;;;;;;5053566;28;20473;-75
2023/01/02 00:48:55;;;;;;;1999.90;999.90;;;11.60;99.90;;;;;;5053517;28;20021;-76
2023/01/02 00:51:21;;;;;;;1999.90;999.90;;;11.60;99.90;;;;;;5053823;28;20103;-76
2023/01/02 00:53:46;;;;;;;1999.90;999.90;;;11.60;99.90;;;;;;5053470;28;20063;-76
2023/01/02 00:56:12;;;;;;;1999.90;999.90;;;11.60;99.90;;;;;;5053247;28;20035;-76
2023/01/02 00:58:37;;;;;;;1999.90;999.90;;;11.60;99.90;;;;;;5053234;28;20495;-76
2023/01/02 01:01:03;;;;;;;1999.90;999.90;;;11.60;99.90;;;;;;5053333;28;20029;-76
2023/01/02 01:03:29;;;;;;;1999.90;999.90;;;11.60;99.90;;;;;;5053653;28;20032;-75
2023/01/02 01:05:55;;;;;;;1999.90;999.90;;;11.60;99.90;;;;;;5053196;28;20510;-75
2023/01/02 01:08:21;;;;;;;1999.90;999.90;;;11.70;99.90;;;;;;5053165;28;20025;-75
2023/01/02 01:10:47;;;;;;;1999.90;999.90;;;11.70;99.90;;;;;;5051792;28;20029;-76
2023/01/02 01:13:12;;;;;;;1999.90;999.90;;;11.70;99.90;;;;;;5052829;28;20052;-75
2023/01/02 01:15:38;;;;;;;1999.90;999.90;;;11.70;99.90;;;;;;5053115;28;20036;-75
2023/01/02 01:18:04;;;;;;;1999.90;999.90;;;11.70;99.90;;;;;;5052708;28;20024;-76
2023/01/02 01:20:29;;;;;;;1999.90;999.90;;;11.70;99.90;;;;;;5053035;28;20037;-75
2023/01/02 01:22:55;;;;;;;1999.90;999.90;;;11.70;99.90;;;;;;5052399;28;20563;-75
2023/01/02 01:25:21;;;;;;;1999.90;999.90;;;11.70;99.90;;;;;;5051136;28;20116;-76
2023/01/02 01:27:46;;;;;;;1999.90;999.90;;;11.70;99.90;;;;;;5052814;28;20150;-75
2023/01/02 01:30:12;;;;;;;1999.90;999.90;;;11.70;99.90;;;;;;5052856;28;20029;-76
2023/01/02 01:32:38;;;;;;;1999.90;999.90;;;11.70;99.90;;;;;;5052672;28;20104;-76
2023/01/02 01:35:04;;;;;;;1999.90;999.90;;;11.80;99.90;;;;;;5052070;28;20033;-76
2023/01/02 01:37:29;;;;;;;1999.90;999.90;;;11.80;99.90;;;;;;5052687;28;20062;-75
2023/01/02 01:39:55;;;;;;;1999.90;999.90;;;11.80;99.90;;;;;;5052815;28;20056;-75
2023/01/02 01:42:20;;;;;;;1999.90;999.90;;;11.80;99.90;;;;;;5052188;28;20025;-76
2023/01/02 01:44:54;;;;;;;1999.90;999.90;;;11.80;99.90;;;;;;5052670;28;20028;-76
2023/01/02 01:47:38;;;;;;;1999.90;999.90;;;11.70;99.90;;;;;;5052852;28;20025;-75
2023/01/02 01:50:20;;;;;;;1999.90;999.90;;;11.70;99.90;;;;;;5051114;28;20032;-76
2023/01/02 01:53:02;;;;;;;1999.90;999.90;;;11.60;99.90;;;;;;5051332;28;20025;-76
2023/01/02 01:55:50;;;;;;;1999.90;999.90;;;11.60;99.90;;;;;;5052620;28;20036;-76
2023/01/02 01:58:44;;;;;;;1999.90;999.90;;;11.60;99.90;;;;;;5051087;28;20017;-75
2023/01/02 02:01:14;;;;;;;1999.90;999.90;;;11.60;99.90;;;;;;5051724;28;20048;-75
2023/01/02 02:03:42;;;;;;;1999.90;999.90;;;11.60;99.90;;;;;;5052443;28;20029;-75
2023/01/02 02:06:09;;;;;;;1999.90;999.90;;;11.60;99.90;;;;;;5051732;28;20040;-75
2023/01/02 02:09:07;;;;;;;1999.90;999.90;;;11.60;99.90;;;;;;5052219;28;20025;-76
2023/01/02 02:11:34;;;;;;;1999.90;999.90;;;11.70;99.90;;;;;;5052188;28;20043;-75
2023/01/02 02:14:00;;;;;;;1999.90;999.90;;;11.70;99.90;;;;;;5051830;28;20029;-75
2023/01/02 02:16:40;;;;;;;1999.90;999.90;;;11.70;99.90;;;;;;5052013;28;20100;-74
2023/01/02 02:19:27;;;;;;;1999.90;999.90;;;11.60;99.90;;;;;;5030888;28;20029;-75
2023/01/02 02:22:17;;;;;;;1999.90;999.90;;;11.60;99.90;;;;;;5040170;28;20150;-75
2023/01/02 02:25:20;;;;;;;1999.90;999.90;;;11.60;99.90;;;;;;5051661;28;20059;-75
2023/01/02 02:28:19;;;;;;;1999.90;999.90;;;11.70;99.90;;;;;;5050702;28;20032;-75
2023/01/02 02:31:03;;;;;;;1999.90;999.90;;;11.60;99.90;;;;;;5051892;28;20627;-75
2023/01/02 02:34:18;;;;;;;1999.90;999.90;;;11.60;99.90;;;;;;5051895;28;20083;-75
2023/01/02 02:37:05;;;;;;;1999.90;999.90;;;11.60;99.90;;;;;;5042160;28;20045;-75
2023/01/02 02:39:53;;;;;;;1999.90;999.90;;;11.60;99.90;;;;;;5051963;28;20056;-76
2023/01/02 02:42:56;;;;;;;1999.90;999.90;;;11.60;99.90;;;;;;5047127;28;20048;-75
2023/01/02 02:45:49;;;;;;;1999.90;999.90;;;11.60;99.90;;;;;;5051943;28;20035;-76
2023/01/02 02:48:30;;;;;;;1999.90;999.90;;;11.60;99.90;;;;;;5051725;28;20031;-75
2023/01/02 02:51:04;;;;;;;1999.90;999.90;;;11.50;99.90;;;;;;5051501;28;20063;-76
2023/01/02 02:53:46;;;;;;;1999.90;999.90;;;11.50;99.90;;;;;;5052088;28;20023;-77
2023/01/02 02:56:15;;;;;;;1999.90;999.90;;;11.50;99.90;;;;;;5051209;28;20032;-76
2023/01/02 02:58:42;;;;;;;1999.90;999.90;;;11.40;99.90;;;;;;5051471;28;20488;-77
2023/01/02 03:01:14;;;;;;;1999.90;999.90;;;11.50;99.90;;;;;;5050139;28;20514;-76
2023/01/02 03:03:40;;;;;;;1999.90;999.90;;;11.40;99.90;;;;;;5050291;28;20041;-76
2023/01/02 03:06:18;;;;;;;1999.90;999.90;;;11.50;99.90;;;;;;5053389;28;20033;-76
2023/01/02 03:09:08;;;;;;;1999.90;999.90;;;11.40;99.90;;;;;;5055417;28;20029;-76
2023/01/02 03:12:23;;;;;;;1999.90;999.90;;;11.50;99.90;;;;;;5055386;28;20488;-76
2023/01/02 03:14:57;;;;;;;1999.90;999.90;;;11.50;99.90;;;;;;5001142;28;20038;-76
2023/01/02 03:17:33;;;;;;;1999.90;999.90;;;11.40;99.90;;;;;;5055240;28;20535;-76
2023/01/02 03:20:12;;;;;;;1999.90;999.90;;;11.40;99.90;;;;;;5055347;28;20369;-75
2023/01/02 03:22:42;;;;;;;1999.90;999.90;;;11.50;99.90;;;;;;5053414;28;20021;-76
2023/01/02 03:25:10;;;;;;;1999.90;999.90;;;11.50;99.90;;;;;;5055051;28;20336;-75
2023/01/02 03:27:40;;;;;;;1999.90;999.90;;;11.50;99.90;;;;;;5055076;28;20502;-76
2023/01/02 03:30:16;;;;;;;1999.90;999.90;;;11.40;99.90;;;;;;5054857;28;20021;-76
2023/01/02 03:33:06;;;;;;;1999.90;999.90;;;11.40;99.90;;;;;;5054950;28;20025;-76
2023/01/02 03:35:48;;;;;;;1999.90;999.90;;;11.50;99.90;;;;;;5054564;28;20095;-75
2023/01/02 03:38:24;;;;;;;1999.90;999.90;;;11.40;99.90;;;;;;5054968;28;20017;-76
2023/01/02 03:41:06;;;;;;;1999.90;999.90;;;11.40;99.90;;;;;;5054642;28;20029;-75
2023/01/02 03:43:35;;;;;;;1999.90;999.90;;;11.40;99.90;;;;;;5054852;28;20080;-75
2023/01/02 03:46:08;;;;;;;1999.90;999.90;;;11.40;99.90;;;;;;5053457;28;20032;-76
2023/01/02 03:48:50;;;;;;;1999.90;999.90;;;11.40;99.90;;;;;;5054716;28;20100;-75
2023/01/02 03:51:16;;;;;;;1999.90;999.90;;;11.30;99.90;;;;;;5054859;28;20029;-75
2023/01/02 03:53:42;;;;;;;1999.90;999.90;;;11.30;99.90;;;;;;5053641;28;20041;-75
2023/01/02 03:56:29;;;;;;;1999.90;999.90;;;11.30;99.90;;;;;;5054707;28;20114;-75
2023/01/02 03:59:21;;;;;;;1999.90;999.90;;;11.30;99.90;;;;;;5054580;28;20056;-76
2023/01/02 04:02:11;;;;;;;1999.90;999.90;;;11.30;99.90;;;;;;5054591;28;20025;-76
2023/01/02 04:04:55;;;;;;;1999.90;999.90;;;11.30;99.90;;;;;;5054201;28;20056;-76
2023/01/02 04:07:49;;;;;;;1999.90;999.90;;;11.30;99.90;;;;;;5054708;28;20020;-76
2023/01/02 04:10:15;;;;;;;1999.90;999.90;;;11.30;99.90;;;;;;5039093;28;20136;-76
2023/01/02 04:12:45;;;;;;;1999.90;999.90;;;11.30;99.90;;;;;;5053572;28;20100;-76
2023/01/02 04:15:13;;;;;;;1999.90;999.90;;;11.30;99.90;;;;;;5054311;28;20107;-76
2023/01/02 04:17:48;;;;;;;1999.90;999.90;;;11.20;99.90;;;;;;5052288;28;20527;-75
2023/01/02 04:20:21;;;;;;;1999.90;999.90;;;11.30;99.90;;;;;;5054120;28;20071;-76
2023/01/02 04:22:50;;;;;;;;;;;11.20;99.90;;;;;;5054208;28;20391;-76
2023/01/02 04:25:17;;;;;;;1999.90;999.90;;;11.20;99.90;;;;;;5054058;28;19911;-77
2023/01/02 04:28:24;;;;;;;1999.90;999.90;;;11.30;99.90;;;;;;5052765;28;20484;-79
2023/01/02 04:30:58;;;;;;;1999.90;999.90;;;11.00;99.90;;;;;;5031720;28;20124;-77
2023/01/02 04:33:27;;;;;;;1999.90;999.90;;;10.80;99.90;;;;;;5031894;28;20512;-77
2023/01/02 04:35:52;;;;;;;1999.90;999.90;;;10.60;99.90;;;;;;5031055;28;20076;-77
2023/01/02 04:38:18;;;;;;;1999.90;999.90;;;10.40;99.90;;;;;;5031786;28;20037;-75
2023/01/02 04:40:44;;;;;;;1999.90;999.90;;;10.30;99.90;;;;;;5015071;28;20022;-78
2023/01/02 04:43:18;;;;;;;1999.90;999.90;;;10.20;99.90;;;;;;5031294;28;20045;-78
2023/01/02 04:45:45;;;;;;;1999.90;999.90;;;10.20;99.90;;;;;;5031711;28;20029;-77
2023/01/02 04:48:11;;;;;;;1999.90;999.90;;;10.20;99.90;;;;;;5031595;28;20034;-78
2023/01/02 04:50:36;;;;;;;1999.90;999.90;;;10.10;99.90;;;;;;5031359;28;20026;-78
2023/01/02 04:53:02;;;;;;;1999.90;999.90;;;10.10;99.90;;;;;;5031275;28;20037;-78
2023/01/02 04:55:28;;;;;;;1999.90;999.90;;;10.20;99.90;;;;;;5031863;28;20052;-78
2023/01/02 04:57:55;;;;;;;1999.90;999.90;;;10.20;99.90;;;;;;5014403;28;20398;-76
2023/01/02 05:00:21;;;;;;;1999.90;999.90;;;10.20;99.90;;;;;;5031323;28;20036;-79
2023/01/02 05:02:46;;;;;;;1999.90;999.90;;;10.20;99.90;;;;;;5053508;28;20041;-78
2023/01/02 05:05:12;;;;;;;1999.90;999.90;;;10.20;99.90;;;;;;5053136;28;20044;-78
2023/01/02 05:07:38;;;;;;;1999.90;999.90;;;10.20;99.90;;;;;;5053574;28;20013;-78
2023/01/02 05:10:05;;;;;;;1999.90;999.90;;;10.30;99.90;;;;;;5053278;28;20029;-76
2023/01/02 05:12:35;;;;;;;1999.90;999.90;;;10.30;99.90;;;;;;5052371;28;20170;-76
2023/01/02 05:15:02;;;;;;;1999.90;999.90;;;10.30;99.90;;;;;;5053394;28;20033;-78
2023/01/02 05:17:27;;;;;;;1999.90;999.90;;;10.30;99.90;;;;;;5053099;28;20032;-75
2023/01/02 05:19:53;;;;;;;1999.90;999.90;;;10.30;99.90;;;;;;5053135;28;20028;-77
2023/01/02 05:25:03;;;;;;;1999.90;999.90;;;10.30;99.90;;;;;;5052550;28;20114;-78
2023/01/02 05:27:28;;;;;;;1999.90;999.90;;;10.30;99.90;;;;;;5052466;28;20504;-78
2023/01/02 05:29:54;;;;;;;1999.90;999.90;;;10.30;99.90;;;;;;5052907;28;20025;-78
2023/01/02 05:32:20;;;;;;;1999.90;999.90;;;10.30;99.90;;;;;;5052800;28;20104;-78
2023/01/02 05:34:45;;;;;;;1999.90;999.90;;;10.30;99.90;;;;;;5052302;28;20036;-75
2023/01/02 05:37:11;;;;;;;1999.90;999.90;;;10.30;99.90;;;;;;5052113;28;20087;-76
2023/01/02 05:39:36;;;;;;;1999.90;999.90;;;10.30;99.90;;;;;;5052963;28;20040;-76
2023/01/02 05:42:02;;;;;;;1999.90;999.90;;;10.30;99.90;;;;;;5052069;28;20064;-77
2023/01/02 05:44:28;;;;;;;1999.90;999.90;;;10.30;99.90;;;;;;5052592;28;20040;-77
2023/01/02 05:46:53;;;;;;;1999.90;999.90;;;10.40;99.90;;;;;;5052495;28;20673;-75
2023/01/02 05:49:19;;;;;;;1999.90;999.90;;;10.40;99.90;;;;;;5052798;28;20021;-77
2023/01/02 05:51:44;;;;;;;1999.90;999.90;;;10.40;99.90;;;;;;5049096;28;20024;-78
2023/01/02 05:54:10;;;;;;;1999.90;999.90;;;10.40;99.90;;;;;;5052048;28;20029;-77
2023/01/02 05:56:36;;;;;;;1999.90;999.90;;;10.40;99.90;;;;;;5051875;28;20454;-78
2023/01/02 05:59:06;;;;;;;1999.90;999.90;;;10.40;99.90;;;;;;5052152;28;20036;-78
2023/01/02 06:01:32;;;;;;;1999.90;999.90;;;10.30;99.90;;;;;;5052609;28;20017;-78
2023/01/02 06:03:59;;;;;;;1999.90;999.90;;;10.40;99.90;;;;;;5051742;28;20099;-77
2023/01/02 06:06:30;;;;;;;1999.90;999.90;;;10.40;99.90;;;;;;5052085;28;20028;-77
2023/01/02 06:08:58;;;;;;;1999.90;999.90;;;10.10;99.90;;;;;;5052017;28;20025;-77
2023/01/02 06:11:24;;;;;;;1999.90;999.90;;;10.10;99.90;;;;;;5052039;28;20013;-78
2023/01/02 06:13:51;;;;;;;1999.90;999.90;;;10.10;99.90;;;;;;5051957;28;20036;-77
2023/01/02 06:16:17;;;;;;;1999.90;999.90;;;10.10;99.90;;;;;;5051821;28;20096;-77
2023/01/02 06:18:42;;;;;;;1999.90;999.90;;;10.10;99.90;;;;;;5051814;28;20100;-77
2023/01/02 06:21:13;;;;;;;1999.90;999.90;;;10.10;99.90;;;;;;5051333;28;20032;-78
2023/01/02 06:23:39;;;;;;;1999.90;999.90;;;10.00;99.90;;;;;;5051730;28;20036;-77
2023/01/02 06:26:11;;;;;;;1999.90;999.90;;;10.00;99.90;;;;;;5051449;28;20023;-78
2023/01/02 06:28:37;;;;;;;1999.90;999.90;;;10.00;99.90;;;;;;5052000;28;20070;-78
2023/01/02 06:31:14;;;;;;;1999.90;999.90;;;10.00;99.90;;;;;;5051622;28;20492;-76
2023/01/02 06:33:41;;;;;;;1999.90;999.90;;;10.00;99.90;;;;;;5051946;28;20033;-78
2023/01/02 06:36:17;;;;;;;1999.90;999.90;;;10.00;99.90;;;;;;5046402;28;20407;-78
2023/01/02 06:38:44;;;;;;;1999.90;999.90;;;9.90;99.90;;;;;;5044952;28;20068;-78
2023/01/02 06:41:10;;;;;;;1999.90;999.90;;;9.90;99.90;;;;;;5039219;28;20420;-78
2023/01/02 06:43:41;;;;;;;1999.90;999.90;;;9.90;99.90;;;;;;5042049;28;20404;-77
2023/01/02 06:46:06;;;;;;;1999.90;999.90;;;9.90;99.90;;;;;;5042974;28;20138;-76
2023/01/02 06:48:33;;;;;;;1999.90;999.90;;;9.90;99.90;;;;;;5045355;28;20043;-78
2023/01/02 06:50:59;;;;;;;1999.90;999.90;;;9.90;99.90;;;;;;5037607;28;20021;-76
2023/01/02 06:53:26;;;;;;;1999.90;999.90;;;9.90;99.90;;;;;;5038665;28;20481;-78
2023/01/02 06:55:57;;;;;;;1999.90;999.90;;;9.90;99.90;;;;;;5042933;28;20028;-75
2023/01/02 06:58:24;;;;;;;1999.90;999.90;;;9.90;99.90;;;;;;5039700;28;20036;-75
2023/01/02 07:00:50;;;;;;;1999.90;999.90;;;9.90;99.90;;;;;;5048525;28;20043;-77
2023/01/02 07:03:17;;;;;;;1999.90;999.90;;;9.90;99.90;;;;;;5033130;28;20336;-75
2023/01/02 07:05:43;;;;;;;1999.90;999.90;;;9.90;99.90;;;;;;5042403;28;20047;-77
2023/01/02 07:08:09;;;;;;;1999.90;999.90;;;9.80;99.90;;;;;;5045319;28;20111;-77
2023/01/02 07:10:35;;;;;;;1999.90;999.90;;;9.80;99.90;;;;;;5047236;28;20029;-76
2023/01/02 07:13:01;;;;;;;1999.90;999.90;;;9.90;99.90;;;;;;5043068;28;20044;-75
2023/01/02 07:15:26;;;;;;;1999.90;999.90;;;9.80;99.90;;;;;;5037629;28;20083;-75
2023/01/02 07:17:52;;;;;;;1999.90;999.90;;;9.80;99.90;;;;;;5043475;28;20039;-76
2023/01/02 07:20:18;;;;;;;1999.90;999.90;;;9.80;99.90;;;;;;5043484;28;20029;-76
2023/01/02 07:22:51;;;;;;;1999.90;999.90;;;9.80;99.90;;;;;;5042421;28;20044;-74
2023/01/02 07:25:17;;;;;;;;;;;9.80;99.90;;;;;;5049246;28;20047;-74
2023/01/02 07:27:43;;;;;;;1999.90;999.90;;;9.80;99.90;;;;;;5046594;28;20364;-76
2023/01/02 07:30:09;;;;;;;1999.90;999.90;;;9.80;99.90;;;;;;5041307;28;20047;-74
2023/01/02 07:32:35;;;;;;;1999.90;999.90;;;9.80;99.90;;;;;;5048146;28;20031;-76
2023/01/02 07:35:00;;;;;;;1999.90;999.90;;;9.80;99.90;;;;;;5046199;28;20100;-77
2023/01/02 07:37:26;;;;;;;1999.90;999.90;;;9.80;99.90;;;;;;5054788;28;20036;-75
2023/01/02 07:39:52;;;;;;;1999.90;999.90;;;9.80;99.90;;;;;;5041072;28;20032;-76
2023/01/02 07:42:17;;;;;;;1999.90;999.90;;;9.80;99.90;;;;;;5048072;28;20055;-74
2023/01/02 07:44:43;;;;;;;1999.90;999.90;;;9.80;99.90;;;;;;5049184;28;20550;-76
2023/01/02 07:47:09;;;;;;;1999.90;999.90;;;9.90;99.90;;;;;;5058326;28;20033;-77
2023/01/02 07:49:35;;;;;;;1999.90;999.90;;;9.90;99.90;;;;;;5047499;28;20037;-74
2023/01/02 07:52:00;;;;;;;1999.90;999.90;;;10.00;99.90;;;;;;5049211;28;20522;-77
2023/01/02 07:54:26;;;;;;;1999.90;999.90;;;10.00;99.90;;;;;;5045622;28;20526;-73
2023/01/02 07:56:52;;;;;;;1999.90;999.90;;;10.00;99.90;;;;;;5049394;28;20049;-78
2023/01/02 07:59:17;;;;;;;1999.90;999.90;;;10.00;99.90;;;;;;5052159;28;20039;-77
2023/01/02 08:01:43;;;;;;;1999.90;999.90;;;10.00;99.90;;;;;;5060074;28;20029;-77
2023/01/02 08:04:09;;;;;;;1999.90;999.90;;;10.00;99.90;;;;;;5053160;28;20044;-75
2023/01/02 08:06:37;;;;;;;1999.90;999.90;;;10.00;99.90;;;;;;5048250;28;20029;-74
2023/01/02 08:09:03;;;;;;;1999.90;999.90;;;10.00;99.90;;;;;;5048125;28;20056;-73
2023/01/02 08:11:28;;;;;;;1999.90;999.90;;;10.00;99.90;;;;;;5062500;28;20448;-76
2023/01/02 08:13:54;;;;;;;1999.90;999.90;;;10.10;99.90;;;;;;5062854;28;20021;-72
2023/01/02 08:16:21;;;;;;;1999.90;999.90;;;10.10;99.90;;;;;;5053044;28;20028;-72
2023/01/02 08:18:50;;;;;;;1999.90;999.90;;;10.10;99.90;;;;;;5050542;28;20072;-76
2023/01/02 08:21:15;;;;;;;1999.90;999.90;;;10.20;99.90;;;;;;5053992;28;20021;-72
2023/01/02 08:23:41;;;;;;;1999.90;999.90;;;10.20;99.90;;;;;;5042223;28;20036;-77
2023/01/02 08:26:09;;;;;;;1999.90;999.90;;;10.20;99.90;;;;;;5052190;28;20077;-76
2023/01/02 08:28:35;;;;;;;1999.90;999.90;;;10.20;99.90;;;;;;5046685;28;20029;-72
2023/01/02 08:31:00;;;;;;;1999.90;999.90;;;10.30;99.90;;;;;;5049331;28;20036;-72
2023/01/02 08:33:26;;;;;;;1999.90;999.90;;;10.30;99.90;;;;;;5043756;28;20033;-72
2023/01/02 08:35:52;;;;;;;1999.90;999.90;;;10.30;99.90;;;;;;5038027;28;20062;-75
2023/01/02 08:38:18;;;;;;;1999.90;999.90;;;10.30;99.90;;;;;;5045358;28;20060;-78
2023/01/02 08:40:44;;;;;;;1999.90;999.90;;;10.20;99.90;;;;;;5054322;28;20364;-73
2023/01/02 08:43:09;;;;;;;1999.90;999.90;;;10.20;99.90;;;;;;5054924;28;20036;-73
2023/01/02 08:45:35;;;;;;;1999.90;999.90;;;10.20;99.90;;;;;;5051518;28;20025;-73
2023/01/02 08:48:01;;;;;;;1999.90;999.90;;;10.30;99.90;;;;;;5051662;28;20476;-76
2023/01/02 08:50:27;;;;;;;1999.90;999.90;;;10.30;99.90;;;;;;5053279;28;20487;-75
2023/01/02 08:52:52;;;;;;;1999.90;999.90;;;10.20;99.90;;;;;;5052752;28;20020;-73
2023/01/02 08:55:18;;;;;;;1999.90;999.90;;;10.20;99.90;;;;;;5059941;28;20032;-75
2023/01/02 08:57:44;;;;;;;1999.90;999.90;;;10.10;99.90;;;;;;5048244;28;20025;-72
2023/01/02 09:00:10;;;;;;;1999.90;999.90;;;10.10;99.90;;;;;;5051615;28;20440;-72
2023/01/02 09:02:35;;;;;;;1999.90;999.90;;;10.20;99.90;;;;;;5056313;28;20029;-72
2023/01/02 09:05:01;;;;;;;1999.90;999.90;;;10.30;99.90;;;;;;5050509;28;20425;-78
2023/01/02 09:07:27;;;;;;;1999.90;999.90;;;10.30;99.90;;;;;;5052425;28;20113;-72
2023/01/02 09:09:53;;;;;;;1999.90;999.90;;;10.40;99.90;;;;;;5050006;28;20040;-72
2023/01/02 09:12:18;;;;;;;1999.90;999.90;;;10.40;99.90;;;;;;5065628;28;20036;-76
2023/01/02 09:14:44;;;;;;;1999.90;999.90;;;10.50;99.90;;;;;;5053791;28;20032;-72
2023/01/02 09:17:10;;;;;;;1999.90;999.90;;;10.60;99.90;;;;;;5057193;28;20143;-76
2023/01/02 09:19:35;;;;;;;1999.90;999.90;;;10.60;99.90;;;;;;5045769;28;20119;-73
2023/01/02 09:22:01;;;;;;;1999.90;999.90;;;10.50;99.90;;;;;;5045906;28;20385;-77
2023/01/02 09:24:27;;;;;;;1999.90;999.90;;;10.60;99.90;;;;;;5045306;28;20032;-73
2023/01/02 09:26:53;;;;;;;1999.90;999.90;;;10.70;99.90;;;;;;5053744;28;20102;-75
2023/01/02 09:29:19;;;;;;;1999.90;999.90;;;10.70;99.90;;;;;;5052587;28;20488;-76
2023/01/02 09:31:45;;;;;;;1999.90;999.90;;;10.70;99.90;;;;;;5050130;28;20120;-76
2023/01/02 09:34:11;;;;;;;1999.90;999.90;;;10.70;99.90;;;;;;5050683;28;20040;-73
2023/01/02 09:36:36;;;;;;;1999.90;999.90;;;10.80;99.90;;;;;;5051336;28;20463;-73
2023/01/02 09:39:03;;;;;;;1999.90;999.90;;;10.70;99.90;;;;;;5047989;28;20183;-74
2023/01/02 09:41:35;;;;;;;1999.90;999.90;;;10.70;99.90;;;;;;5048560;28;20063;-76
2023/01/02 09:44:29;;;;;;;1999.90;999.90;;;10.70;99.90;;;;;;5050891;28;20025;-76
2023/01/02 09:47:04;;;;;;;1999.90;999.90;;;10.80;99.90;;;;;;5042588;28;20044;-73
2023/01/02 09:49:35;;;;;;;1999.90;999.90;;;10.80;99.90;;;;;;5047004;28;20021;-73
2023/01/02 09:52:01;;;;;;;1999.90;999.90;;;10.70;99.90;;;;;;5049290;28;20086;-73
2023/01/02 09:54:32;;;;;;;1999.90;999.90;;;10.80;99.90;;;;;;5048763;28;20036;-77
2023/01/02 09:57:22;;;;;;;1999.90;999.90;;;10.80;99.90;;;;;;5045537;28;20051;-77
2023/01/02 10:00:04;;;;;;;1999.90;999.90;;;10.80;99.90;;;;;;5051817;28;20457;-74
2023/01/02 10:02:45;;;;;;;1999.90;999.90;;;10.80;99.90;;;;;;5047655;28;20542;-77
2023/01/02 10:05:32;;;;;;;1999.90;999.90;;;11.00;99.90;;;;;;5048708;28;20053;-73
2023/01/02 10:08:10;;;;;;;1999.90;999.90;;;11.10;99.90;;;;;;5051012;28;20033;-74
2023/01/02 10:10:40;;;;;;;1999.90;999.90;;;11.30;99.90;;;;;;5053204;28;20032;-77
2023/01/02 10:13:34;;;;;;;1999.90;999.90;;;11.40;99.90;;;;;;5049519;28;20021;-77
2023/01/02 10:16:03;;;;;;;1999.90;999.90;;;11.40;99.90;;;;;;5043466;28;20043;-74
2023/01/02 10:18:42;;;;;;;1999.90;999.90;;;11.60;99.90;;;;;;5048690;28;20051;-74
2023/01/02 10:21:15;;;;;;;1999.90;999.90;;;11.80;99.90;;;;;;5050705;28;20033;-73
2023/01/02 10:24:14;;;;;;;1999.90;999.90;;;12.00;99.90;;;;;;5045389;28;20037;-76
2023/01/02 10:26:46;;;;;;;1999.90;999.90;;;12.10;99.90;;;;;;5064537;28;20415;-74
2023/01/02 10:29:38;;;;;;;1999.90;999.90;;;12.20;99.90;;;;;;5048666;28;20017;-77
2023/01/02 10:32:10;;;;;;;1999.90;999.90;;;12.40;99.90;;;;;;5046780;28;20089;-74
2023/01/02 10:34:46;;;;;;;1999.90;999.90;;;12.40;99.90;;;;;;5047334;28;20032;-76
2023/01/02 10:37:14;;;;;;;1999.90;999.90;;;12.30;99.90;;;;;;5048495;28;20036;-75
2023/01/02 10:39:42;;;;;;;1999.90;999.90;;;12.40;99.90;;;;;;5047385;28;20041;-73
2023/01/02 10:42:13;;;;;;;1999.90;999.90;;;12.40;99.90;;;;;;5067799;28;20036;-76
2023/01/02 10:44:41;;;;;;;1999.90;999.90;;;12.50;99.90;;;;;;5049600;28;20029;-73
2023/01/02 10:47:34;;;;;;;1999.90;999.90;;;12.50;99.90;;;;;;5048152;28;20501;-77
2023/01/02 10:50:02;;;;;;;1999.90;999.90;;;12.50;99.90;;;;;;5050534;28;20020;-76
2023/01/02 10:52:46;;;;;;;1999.90;999.90;;;12.50;99.90;;;;;;5067493;28;20273;-76
2023/01/02 10:55:12;;;;;;;1999.90;999.90;;;12.60;99.90;;;;;;5050013;28;20055;-76
2023/01/02 10:57:49;;;;;;;1999.90;999.90;;;12.50;99.90;;;;;;5050237;28;20560;-75
2023/01/02 11:00:18;;;;;;;1999.90;999.90;;;12.40;99.90;;;;;;5050263;28;20044;-76
2023/01/02 11:02:50;;;;;;;1999.90;999.90;;;12.50;99.90;;;;;;5048998;28;20028;-76
2023/01/02 11:05:23;;;;;;;1999.90;999.90;;;12.70;99.90;;;;;;5049939;28;20091;-73
2023/01/02 11:07:50;;;;;;;1999.90;999.90;;;12.80;99.90;;;;;;5049917;28;20029;-75
2023/01/02 11:10:33;;;;;;;1999.90;999.90;;;12.80;99.90;;;;;;5050696;28;20549;-73
2023/01/02 11:13:10;;;;;;;1999.90;999.90;;;12.50;99.90;;;;;;5048202;28;20040;-76
2023/01/02 11:16:03;;;;;;;1999.90;999.90;;;12.70;99.90;;;;;;5053627;28;20047;-73
2023/01/02 11:18:31;;;;;;;1999.90;999.90;;;12.90;99.90;;;;;;5046256;28;20052;-73
2023/01/02 11:21:03;;;;;;;1999.90;999.90;;;13.00;99.90;;;;;;5049426;28;20350;-73
2023/01/02 11:23:34;;;;;;;1999.90;999.90;;;13.10;99.90;;;;;;5043345;28;20033;-73
2023/01/02 11:26:01;;;;;;;1999.90;999.90;;;13.10;99.90;;;;;;5036328;28;21292;-75
2023/01/02 11:28:31;;;;;;;1999.90;999.90;;;13.20;99.90;;;;;;5033875;28;20032;-76
2023/01/02 11:31:08;;;;;;;1999.90;999.90;;;13.30;99.90;;;;;;5048925;28;20624;-76
2023/01/02 11:33:36;;;;;;;1999.90;999.90;;;13.40;99.90;;;;;;5051029;28;20021;-73
2023/01/02 11:36:11;;;;;;;1999.90;999.90;;;13.40;99.90;;;;;;5048924;28;20106;-73
2023/01/02 11:38:44;;;;;;;1999.90;999.90;;;13.50;99.90;;;;;;5048726;28;20504;-75
2023/01/02 11:44:56;;;;;;;1999.90;999.90;;;13.50;99.90;;;;;;5040775;28;20090;-75
2023/01/02 11:47:33;;;;;;;1999.90;999.90;;;13.60;99.90;;;;;;5041555;28;20123;-76
2023/01/02 11:49:59;;;;;;;1999.90;999.90;;;13.70;99.90;;;;;;5046011;28;20162;-76
2023/01/02 11:52:41;;;;;;;1999.90;999.90;;;13.50;99.90;;;;;;5041255;28;20029;-76
2023/01/02 11:55:24;;;;;;;1999.90;999.90;;;13.40;99.90;;;;;;5037415;28;20474;-74
2023/01/02 11:57:56;;;;;;;1999.90;999.90;;;13.50;99.90;;;;;;5045640;28;20138;-74
2023/01/02 12:00:27;;;;;;;1999.90;999.90;;;13.50;99.90;;;;;;5049626;28;20033;-73
2023/01/02 12:02:53;;;;;;;1999.90;999.90;;;13.60;99.90;;;;;;5047753;28;20036;-74
2023/01/02 12:06:05;;;;;;;1999.90;999.90;;;13.60;99.90;;;;;;5048506;28;20041;-74
2023/01/02 12:08:50;;;;;;;1999.90;999.90;;;13.60;99.90;;;;;;5041181;28;20044;-74
2023/01/02 12:11:22;;;;;;;1999.90;999.90;;;13.70;99.90;;;;;;5042434;28;20037;-74
2023/01/02 12:13:53;;;;;;;1999.90;999.90;;;13.60;99.90;;;;;;5044083;28;20035;-74
2023/01/02 12:16:22;;;;;;;1999.90;999.90;;;13.70;99.90;;;;;;5048251;28;20033;-73
2023/01/02 12:19:09;;;;;;;1999.90;999.90;;;13.70;99.90;;;;;;5049916;28;20025;-77
2023/01/02 12:22:18;;;;;;;1999.90;999.90;;;13.90;99.90;;;;;;5049716;28;20068;-73
2023/01/02 12:24:54;;;;;;;1999.90;999.90;;;14.10;99.90;;;;;;5033482;28;20651;-74
2023/01/02 12:27:42;;;;;;;1999.90;999.90;;;14.00;99.90;;;;;;5046797;28;20080;-74